Time;durP1;ratioP1;P1;durP2;ratioP2;P2;SDS_P1;SDS_P2;PMS_P1;PMS_P2;Temp;Humidity;BMP_temperature;BMP_pressure;BME280_temperature;BME280_humidity;BME280_pressure;Samples;Min_cycle;Max_cycle;Signal;HPM_P1;HPM_P2
2022/11/06 00:00:59;;;;;;;;;7.00;7.00;;;;;18.27;75.90;100243.78;146619;575;46014;-79
2022/11/06 00:03:57;;;;;;;;;8.50;7.75;;;;;18.23;74.98;100227.13;146621;732;46020;-75
2022/11/06 00:07:02;;;;;;;;;7.75;7.75;;;;;16.77;73.78;99972.69;146618;628;46017;-75
2022/11/06 00:09:59;;;;;;;;;9.25;8.00;;;;;18.25;75.36;100220.13;146625;570;46020;-77
2022/11/06 00:12:55;;;;;;;;;11.00;8.00;;;;;18.25;74.26;100214.91;146616;608;46017;-76
2022/11/06 00:15:50;;;;;;;;;10.50;8.00;;;;;18.26;75.56;100219.31;146623;585;46010;-72
2022/11/06 00:18:45;;;;;;;;;12.25;10.25;;;;;18.27;74.09;100228.03;146620;565;46012;-75
2022/11/06 00:22:01;;;;;;;;;8.00;6.50;;;;;18.26;73.06;100239.41;146619;701;46027;-73
2022/11/06 00:25:00;;;;;;;;;11.25;8.75;;;;;18.24;72.37;100237.63;146620;600;46016;-71
2022/11/06 00:28:05;;;;;;;;;;;;;;;;;;;;;
2022/11/06 00:31:15;;;;;;;;;6.00;5.00;;;;;18.10;71.61;100226.09;146622;580;45032;-69
2022/11/06 00:34:19;;;;;;;;;4.00;2.67;;;;;17.99;71.95;100223.31;146624;592;46010;-68
2022/11/06 00:37:22;;;;;;;;;2.00;1.00;;;;;16.62;69.56;99994.22;146619;587;46017;-69
2022/11/06 00:40:39;;;;;;;;;5.00;3.00;;;;;17.88;70.97;100216.16;146622;573;46020;-68
2022/11/06 00:43:41;;;;;;;;;;;;;;;;;;;;;
2022/11/06 00:46:37;;;;;;;;;3.00;2.67;;;;;17.83;69.85;100224.00;146623;635;46010;-68
2022/11/06 00:49:37;;;;;;;;;3.00;2.33;;;;;17.86;69.19;100205.66;146621;640;46013;-68
2022/11/06 00:52:42;;;;;;;;;2.00;2.00;;;;;17.85;68.71;100206.53;146621;599;46020;-69
2022/11/06 00:55:56;;;;;;;;;;;;;;;;;;;;;
2022/11/06 00:58:52;;;;;;;;;0.33;0.33;;;;;17.76;68.22;100204.62;146623;646;46010;-71
2022/11/06 01:01:50;;;;;;;;;0.00;0.00;;;;;17.77;67.09;100214.28;146619;607;46016;-73
2022/11/06 01:04:51;;;;;;;;;2.25;1.50;;;;;17.83;66.86;100208.25;146626;587;46010;-70
2022/11/06 01:07:46;;;;;;;;;1.33;0.00;;;;;17.90;65.97;100222.31;146622;593;46012;-76
2022/11/06 01:10:42;;;;;;;;;0.67;0.67;;;;;17.96;66.02;100215.41;146622;581;46020;-71
2022/11/06 01:13:42;;;;;;;;;1.00;0.00;;;;;17.97;64.98;100211.94;146621;565;46012;-73
2022/11/06 01:16:49;;;;;;;;;;;;;;;;;;;;;
2022/11/06 01:19:51;;;;;;;;;0.33;0.00;;;;;18.05;64.14;100206.78;146618;576;46017;-70
2022/11/06 01:22:49;;;;;;;;;1.67;0.67;;;;;18.07;63.48;100212.94;146625;630;46010;-70
2022/11/06 01:25:51;;;;;;;;;;;;;;;;;;;;;
2022/11/06 01:29:01;;;;;;;;;0.00;0.00;;;;;15.82;62.97;99853.47;146621;590;46021;-70
2022/11/06 01:31:54;;;;;;;;;0.33;0.00;;;;;18.07;62.88;100201.53;146618;648;46016;-70
2022/11/06 01:34:57;;;;;;;;;0.33;0.33;;;;;18.07;63.23;100196.31;146624;615;46020;-70
2022/11/06 01:38:07;;;;;;;;;0.00;0.00;;;;;18.07;62.26;100197.22;146620;585;46016;-70
2022/11/06 01:41:03;;;;;;;;;0.00;0.00;;;;;18.10;62.52;100181.50;146621;695;46010;-70
2022/11/06 01:44:40;;;;;;;;;;;;;;;;;;;;;
2022/11/06 01:47:37;;;;;;;;;0.00;0.00;;;;;18.14;62.91;100185.03;146624;580;46020;-69
2022/11/06 01:50:43;;;;;;;;;1.00;0.00;;;;;18.15;62.65;100213.91;146621;579;45017;-71
2022/11/06 01:53:44;;;;;;;;;0.67;0.00;;;;;18.18;62.19;100242.81;146623;594;46020;-69
2022/11/06 01:56:40;;;;;;;;;0.00;0.00;;;;;18.19;62.47;100254.19;146621;686;46012;-72
2022/11/06 01:59:41;;;;;;;;;1.00;1.00;;;;;18.15;62.17;100232.28;146622;588;46020;-73
2022/11/06 02:02:40;;;;;;;;;0.00;0.00;;;;;18.14;62.75;100248.88;146619;617;46017;-72
2022/11/06 02:05:42;;;;;;;;;0.33;0.00;;;;;18.13;62.66;100249.75;146624;652;46021;-71
2022/11/06 02:08:40;;;;;;;;;0.00;0.00;;;;;16.93;62.37;100050.59;146619;591;46012;-71
2022/11/06 02:11:47;;;;;;;;;0.00;0.00;;;;;18.06;61.92;100265.38;146623;598;46021;-73
2022/11/06 02:15:35;;;;;;;;;1.33;0.00;;;;;16.71;62.95;100030.16;146621;584;46012;-72
2022/11/06 02:19:27;;;;;;;;;0.33;0.00;;;;;16.98;63.22;100089.94;146617;608;46912;-73
2022/11/06 02:22:35;;;;;;;;;1.00;0.00;;;;;17.97;64.22;100282.78;146704;564;46022;-73
2022/11/06 02:26:03;;;;;;;;;0.00;0.00;;;;;17.96;64.17;100286.25;146621;590;46012;-75
2022/11/06 02:29:03;;;;;;;;;0.00;0.00;;;;;17.98;63.56;100275.78;146625;583;46010;-73
2022/11/06 02:31:59;;;;;;;;;0.00;0.00;;;;;18.01;63.39;100267.97;146619;598;46016;-72
2022/11/06 02:34:58;;;;;;;;;0.00;0.00;;;;;18.04;62.74;100272.34;146617;581;46032;-71
2022/11/06 02:38:25;;;;;;;;;0.00;0.00;;;;;18.05;62.47;100264.50;146617;565;46016;-72
2022/11/06 02:41:50;;;;;;;;;0.00;0.00;;;;;18.07;62.24;100270.66;146625;610;46011;-73
2022/11/06 02:44:45;;;;;;;;;0.00;0.00;;;;;18.11;62.93;100276.84;146615;593;46016;-72
2022/11/06 02:47:41;;;;;;;;;0.00;0.00;;;;;18.13;62.43;100276.00;146626;594;46010;-76
2022/11/06 02:50:41;;;;;;;;;0.00;0.00;;;;;18.11;61.81;100261.97;146620;685;46917;-79
2022/11/06 02:53:35;;;;;;;;;0.00;0.00;;;;;18.08;62.56;100261.06;146622;607;47010;-81
2022/11/06 02:56:53;;;;;;;;;0.67;0.00;;;;;18.04;62.47;100257.50;146616;677;46017;-72
2022/11/06 03:00:17;;;;;;;;;0.00;0.00;;;;;17.96;62.44;100246.00;146622;637;46020;-71
2022/11/06 03:03:39;;;;;;;;;;;;;;;;;;;;;
2022/11/06 03:07:21;;;;;;;;;0.00;0.00;;;;;18.02;62.82;100267.09;146623;597;46023;-73
2022/11/06 03:10:33;;;;;;;;;0.00;0.00;;;;;17.99;63.49;100254.81;146620;668;46016;-69
2022/11/06 03:14:06;;;;;;;;;0.00;0.00;;;;;17.95;63.04;100247.75;146624;592;47010;-70
2022/11/06 03:17:45;;;;;;;;;1.00;0.00;;;;;17.99;63.60;100261.81;146620;628;47012;-71
2022/11/06 03:21:12;;;;;;;;;0.00;0.00;;;;;17.95;62.89;100266.12;146623;641;46021;-75
2022/11/06 03:24:22;;;;;;;;;1.00;0.00;;;;;17.97;62.72;100269.66;146620;563;46016;-76
2022/11/06 03:27:46;;;;;;;;;0.33;0.33;;;;;17.95;61.58;100247.75;146623;581;46011;-71
2022/11/06 03:31:00;;;;;;;;;2.33;0.00;;;;;18.05;62.23;100261.88;146619;573;47016;-71
2022/11/06 03:34:21;;;;;;;;;0.00;0.00;;;;;18.09;61.77;100257.56;146624;566;46020;-70
2022/11/06 03:37:39;;;;;;;;;1.00;0.00;;;;;18.13;60.46;100255.00;146619;668;46012;-74
2022/11/06 03:40:47;;;;;;;;;1.00;0.67;;;;;18.17;61.35;100258.53;146623;583;46010;-79
2022/11/06 03:43:46;;;;;;;;;1.00;1.00;;;;;18.16;61.84;100244.56;146620;592;46012;-70
2022/11/06 03:47:02;;;;;;;;;3.00;1.00;;;;;18.18;61.73;100241.94;146626;570;45020;-70
2022/11/06 03:50:44;;;;;;;;;1.33;0.00;;;;;18.19;61.27;100239.34;146621;579;46016;-69
2022/11/06 03:54:01;;;;;;;;;2.33;0.00;;;;;18.18;62.54;100249.81;146625;582;46010;-70
2022/11/06 03:57:17;;;;;;;;;0.67;0.00;;;;;18.16;62.12;100247.19;146619;603;46914;-70
2022/11/06 04:00:31;;;;;;;;;2.33;1.00;;;;;18.18;61.82;100244.56;146625;566;46010;-76
2022/11/06 04:03:42;;;;;;;;;2.00;0.67;;;;;18.21;60.94;100239.34;146620;574;46016;-78
2022/11/06 04:07:12;;;;;;;;;0.67;0.67;;;;;18.27;62.12;100233.28;146625;595;46020;-77
2022/11/06 04:14:13;;;;;;;;;;;;;;;;;;;;;
2022/11/06 04:17:16;;;;;;;;;2.67;2.00;;;;;18.34;61.43;100245.62;146623;641;46012;-79
2022/11/06 04:21:20;;;;;;;;;0.00;0.00;;;;;18.31;60.73;100238.59;146626;633;46010;-79
2022/11/06 04:27:57;;;;;;;;;1.67;0.00;;;;;18.38;59.75;100239.53;146625;576;46011;-79
2022/11/06 04:31:16;;;;;;;;;3.67;1.00;;;;;18.36;60.76;100231.66;146621;639;46012;-81
2022/11/06 04:34:31;;;;;;;;;1.00;1.00;;;;;18.33;62.45;100243.87;146621;600;46021;-81
2022/11/06 04:37:59;;;;;;;;;0.67;0.33;;;;;18.27;62.10;100249.91;146619;647;46018;-77
2022/11/06 04:41:40;;;;;;;;;5.67;2.00;;;;;18.22;60.65;100244.63;146625;566;45021;-77
2022/11/06 04:44:49;;;;;;;;;2.00;2.00;;;;;18.30;60.75;100255.22;146619;565;46016;-79
2022/11/06 04:47:51;;;;;;;;;3.00;3.00;;;;;18.32;61.10;100263.13;146626;662;46011;-77
2022/11/06 04:51:02;;;;;;;;;2.00;2.00;;;;;18.32;60.73;100256.12;146620;637;46016;-77
2022/11/06 04:54:00;;;;;;;;;4.67;2.67;;;;;18.32;60.73;100253.50;146625;610;46010;-79
2022/11/06 04:56:54;;;;;;;;;3.67;2.00;;;;;18.29;60.25;100252.59;146622;632;46016;-76
2022/11/06 04:59:59;;;;;;;;;2.00;2.00;;;;;18.27;60.65;100263.03;146624;569;46020;-78
2022/11/06 05:02:57;;;;;;;;;2.00;2.00;;;;;18.26;60.93;100256.03;146621;676;46017;-80
2022/11/06 05:05:58;;;;;;;;;3.00;1.67;;;;;18.28;61.07;100256.03;146625;573;46010;-78
2022/11/06 05:09:16;;;;;;;;;0.00;0.00;;;;;18.28;60.32;100254.28;146623;606;46012;-78
2022/11/06 05:12:17;;;;;;;;;2.67;1.33;;;;;18.27;60.71;100254.28;146624;571;46014;-82
2022/11/06 05:15:20;;;;;;;;;4.00;2.00;;;;;18.26;60.71;100263.91;146620;569;46016;-78
2022/11/06 05:18:15;;;;;;;;;2.67;2.00;;;;;18.29;61.44;100257.81;146625;575;46011;-84
2022/11/06 05:24:23;;;;;;;;;3.33;2.33;;;;;18.34;61.05;100256.12;146623;581;46020;-75
2022/11/06 05:27:15;;;;;;;;;1.67;0.67;;;;;18.38;61.24;100268.41;146619;621;46016;-77
2022/11/06 05:30:11;;;;;;;;;2.67;2.67;;;;;18.39;61.07;100267.56;146621;570;46020;-73
2022/11/06 05:33:17;;;;;;;;;6.33;3.00;;;;;18.40;62.45;100270.19;146619;608;46016;-71
2022/11/06 05:36:31;;;;;;;;;4.00;1.33;;;;;18.38;61.48;100271.03;146616;635;46020;-78
2022/11/06 05:39:23;;;;;;;;;4.00;3.00;;;;;18.45;60.88;100279.03;146622;609;46016;-76
2022/11/06 05:42:21;;;;;;;;;5.67;1.67;;;;;18.46;62.34;100293.03;146623;585;46021;-77
2022/11/06 05:45:15;;;;;;;;;3.67;3.33;;;;;17.28;61.58;100098.22;146621;663;46012;-74
2022/11/06 05:48:12;;;;;;;;;4.67;3.33;;;;;18.43;62.44;100299.13;146624;649;46021;-74
2022/11/06 05:51:12;;;;;;;;;6.00;6.00;;;;;18.41;62.54;100297.31;146617;569;46016;-76
2022/11/06 05:54:04;;;;;;;;;6.67;4.00;;;;;18.37;64.02;100301.66;146623;631;46020;-75
2022/11/06 05:56:56;;;;;;;;;5.00;4.00;;;;;18.37;63.40;100306.91;146619;598;46016;-75
2022/11/06 06:00:02;;;;;;;;;5.00;4.00;;;;;18.33;64.15;100307.75;146621;619;46020;-75
2022/11/06 06:03:12;;;;;;;;;4.00;4.00;;;;;18.30;64.71;100312.94;146616;671;46017;-75
2022/11/06 06:06:19;;;;;;;;;4.00;3.67;;;;;18.23;65.13;100319.88;146624;576;46020;-75
2022/11/06 06:09:27;;;;;;;;;2.67;2.67;;;;;18.24;63.91;100320.75;146621;575;46015;-72
2022/11/06 06:12:28;;;;;;;;;5.25;4.00;;;;;18.30;65.29;100335.69;146624;622;46010;-72
2022/11/06 06:15:26;;;;;;;;;3.00;3.00;;;;;18.29;64.19;100342.69;146621;688;46012;-71
2022/11/06 06:18:24;;;;;;;;;4.33;4.33;;;;;18.31;65.07;100348.81;146627;578;46010;-70
2022/11/06 06:21:28;;;;;;;;;6.00;4.33;;;;;18.26;65.43;100345.28;146619;599;46014;-70
2022/11/06 06:24:21;;;;;;;;;3.00;2.00;;;;;18.23;65.30;100342.59;146625;598;46010;-71
2022/11/06 06:27:18;;;;;;;;;4.00;3.00;;;;;18.17;65.05;100347.75;146619;631;46014;-70
2022/11/06 06:30:39;;;;;;;;;7.00;5.00;;;;;18.13;64.49;100340.69;146625;675;46010;-71
2022/11/06 06:33:47;;;;;;;;;;;;;;;;;;;;;
2022/11/06 06:36:50;;;;;;;;;4.00;2.00;;;;;18.07;66.17;100349.37;146621;573;46020;-70
2022/11/06 06:39:47;;;;;;;;;3.00;3.00;;;;;18.07;65.98;100354.63;146619;653;46016;-71
2022/11/06 06:42:42;;;;;;;;;5.33;5.33;;;;;18.06;67.08;100375.56;146625;635;46010;-71
2022/11/06 06:45:47;;;;;;;;;3.67;3.67;;;;;18.05;66.67;100366.81;146618;634;46016;-70
2022/11/06 06:48:45;;;;;;;;;2.00;2.00;;;;;18.03;66.69;100373.78;146625;648;46010;-72
2022/11/06 06:51:43;;;;;;;;;3.00;3.00;;;;;18.00;68.24;100384.22;146614;664;47016;-69
2022/11/06 06:54:42;;;;;;;;;4.33;4.00;;;;;17.95;68.53;100388.53;146623;627;46021;-72
2022/11/06 06:57:39;;;;;;;;;4.50;2.25;;;;;17.90;66.76;100396.31;146618;627;46016;-74
2022/11/06 07:00:34;;;;;;;;;5.00;5.00;;;;;16.68;67.94;100193.28;146624;630;46010;-74
2022/11/06 07:03:29;;;;;;;;;8.67;3.33;;;;;17.84;67.69;100398.84;146623;654;46012;-78
2022/11/06 07:06:27;;;;;;;;;3.00;2.33;;;;;17.81;67.70;100398.78;146622;607;46010;-75
2022/11/06 07:09:23;;;;;;;;;2.67;2.00;;;;;17.82;66.94;100411.06;146617;592;46017;-77
2022/11/06 07:12:21;;;;;;;;;3.00;3.00;;;;;17.83;66.30;100407.56;146626;664;46014;-75
2022/11/06 07:15:16;;;;;;;;;6.67;3.67;;;;;17.86;66.81;100405.00;146622;616;46012;-73
2022/11/06 07:18:11;;;;;;;;;1.67;1.00;;;;;17.84;65.78;100409.34;146625;620;46014;-78
2022/11/06 07:21:17;;;;;;;;;1.33;1.33;;;;;17.83;65.11;100406.69;146620;595;46012;-79
2022/11/06 07:24:17;;;;;;;;;2.00;1.00;;;;;17.85;65.18;100411.13;146628;564;45020;-77
2022/11/06 07:27:20;;;;;;;;;2.00;0.67;;;;;17.85;64.76;100403.25;146621;563;46014;-76
2022/11/06 07:30:31;;;;;;;;;5.00;2.00;;;;;16.88;64.02;100222.44;146624;675;45020;-74
2022/11/06 07:33:23;;;;;;;;;2.00;1.00;;;;;17.90;64.14;100390.19;146620;585;46012;-75
2022/11/06 07:36:20;;;;;;;;;5.00;3.67;;;;;17.93;64.62;100404.25;146623;572;46020;-82
2022/11/06 07:39:15;;;;;;;;;2.67;2.00;;;;;17.98;64.66;100393.84;146620;593;46012;-77
2022/11/06 07:42:37;;;;;;;;;;;;;;;;;;;;;
2022/11/06 07:45:40;;;;;;;;;2.33;2.00;;;;;18.00;63.98;100382.47;146621;570;46016;-82
2022/11/06 07:48:39;;;;;;;;;0.00;0.00;;;;;18.05;63.08;100385.19;146625;580;45021;-73
2022/11/06 07:51:33;;;;;;;;;4.00;0.67;;;;;18.08;62.25;100380.00;146620;563;46012;-73
2022/11/06 07:54:33;;;;;;;;;1.00;1.00;;;;;18.13;61.92;100396.69;146624;564;46010;-74
2022/11/06 07:57:26;;;;;;;;;0.33;0.00;;;;;18.18;62.10;100402.00;146617;577;46016;-74
2022/11/06 08:00:29;;;;;;;;;4.00;1.00;;;;;18.27;61.45;100389.03;146625;638;46010;-73
2022/11/06 08:03:28;;;;;;;;;1.33;1.33;;;;;18.35;61.67;100391.75;146622;593;46016;-76
2022/11/06 08:06:27;;;;;;;;;5.00;2.33;;;;;18.41;62.12;100392.75;146622;597;46020;-76
2022/11/06 08:09:20;;;;;;;;;2.67;2.67;;;;;18.43;61.71;100385.75;146618;578;46017;-81
2022/11/06 08:12:21;;;;;;;;;3.00;2.67;;;;;18.45;62.09;100404.16;146623;580;46020;-82
2022/11/06 08:15:21;;;;;;;;;6.00;4.75;;;;;18.45;62.32;100393.66;146618;637;46012;-75
2022/11/06 08:18:27;;;;;;;;;3.67;2.67;;;;;18.44;61.97;100398.03;146619;569;47010;-77
2022/11/06 08:21:28;;;;;;;;;5.25;4.00;;;;;18.40;63.15;100384.81;146621;695;46012;-73
2022/11/06 08:24:23;;;;;;;;;6.75;5.00;;;;;18.41;62.56;100383.94;146621;573;46021;-71
2022/11/06 08:27:25;;;;;;;;;9.50;7.25;;;;;18.45;63.30;100385.78;146618;596;46012;-73
2022/11/06 08:30:26;;;;;;;;;7.00;7.00;;;;;17.38;62.94;100209.31;146621;653;46020;-75
2022/11/06 08:33:20;;;;;;;;;7.00;6.00;;;;;18.47;62.48;100397.16;146619;569;46016;-75
2022/11/06 08:36:21;;;;;;;;;5.00;4.50;;;;;18.48;63.30;100408.56;146622;565;46020;-83
2022/11/06 08:39:26;;;;;;;;;8.50;7.00;;;;;17.16;63.16;100183.63;146618;583;46014;-83
2022/11/06 08:42:23;;;;;;;;;7.50;6.25;;;;;18.50;63.41;100412.97;146624;590;46010;-80
2022/11/06 08:49:37;;;;;;;;;6.33;2.00;;;;;18.70;61.35;100415.88;146615;592;46014;-81
2022/11/06 08:52:33;;;;;;;;;2.00;1.00;;;;;17.74;60.32;100224.69;146622;580;47012;-85
2022/11/06 08:55:30;;;;;;;;;0.33;0.33;;;;;18.81;59.19;100405.53;146625;604;46010;-78
2022/11/06 08:59:00;;;;;;;;;0.00;0.00;;;;;17.76;58.74;100215.12;146622;581;46012;-83
2022/11/06 09:01:55;;;;;;;;;2.00;0.33;;;;;18.92;59.39;100394.28;146629;581;46010;-78
2022/11/06 09:04:56;;;;;;;;;3.00;1.67;;;;;19.11;57.74;100392.75;146619;599;46012;-84
2022/11/06 09:07:57;;;;;;;;;0.33;0.33;;;;;19.28;57.56;100384.16;146620;594;47010;-77
2022/11/06 09:10:57;;;;;;;;;0.00;0.00;;;;;19.35;56.05;100391.28;146623;579;46016;-74
2022/11/06 09:14:01;;;;;;;;;2.00;1.67;;;;;19.44;56.96;100374.69;146626;565;46020;-83
2022/11/06 09:17:04;;;;;;;;;0.00;0.00;;;;;19.53;56.95;100374.78;146623;623;46014;-73
2022/11/06 09:20:07;;;;;;;;;1.00;1.00;;;;;19.72;57.18;100367.94;146620;573;46020;-71
2022/11/06 09:23:07;;;;;;;;;3.00;1.00;;;;;20.11;57.88;100374.41;146618;585;46017;-72
2022/11/06 09:26:00;;;;;;;;;1.00;0.00;;;;;20.45;54.06;100378.12;146624;598;46020;-70
2022/11/06 09:28:53;;;;;;;;;1.00;1.00;;;;;20.67;53.40;100365.97;146616;696;46016;-72
2022/11/06 09:31:48;;;;;;;;;2.67;2.33;;;;;20.89;53.98;100377.47;146622;601;46020;-74
2022/11/06 09:34:41;;;;;;;;;2.00;2.00;;;;;20.94;52.04;100381.00;146618;681;46016;-72
2022/11/06 09:37:35;;;;;;;;;4.00;1.33;;;;;20.85;52.94;100381.84;146622;600;46021;-70
2022/11/06 09:41:03;;;;;;;;;4.33;2.00;;;;;19.53;53.24;100144.25;146618;591;46016;-73
2022/11/06 09:45:07;;;;;;;;;1.33;1.33;;;;;19.73;52.73;100172.44;146622;583;46010;-72
2022/11/06 09:48:20;;;;;;;;;3.67;2.00;;;;;21.17;54.58;100374.03;146620;593;46012;-72
2022/11/06 09:51:51;;;;;;;;;2.67;2.00;;;;;21.33;53.85;100384.62;146619;614;46020;-71
2022/11/06 09:55:05;;;;;;;;;2.00;1.67;;;;;21.45;52.31;100369.72;146620;665;46012;-70
2022/11/06 09:58:07;;;;;;;;;3.33;2.00;;;;;21.49;53.01;100382.91;146624;580;46010;-73
2022/11/06 10:01:31;;;;;;;;;2.33;2.33;;;;;20.19;52.90;100157.72;146618;581;46017;-72
2022/11/06 10:04:53;;;;;;;;;5.33;4.33;;;;;21.37;52.89;100363.59;146621;579;46020;-71
2022/11/06 10:07:51;;;;;;;;;3.33;1.67;;;;;21.15;52.95;100380.19;146619;629;46017;-72
2022/11/06 10:11:17;;;;;;;;;5.67;0.67;;;;;20.90;54.05;100372.22;146617;577;46917;-68
2022/11/06 10:14:58;;;;;;;;;3.00;3.00;;;;;19.29;55.12;100138.84;146618;574;46916;-66
2022/11/06 10:18:27;;;;;;;;;5.67;3.33;;;;;20.40;55.96;100364.91;146622;625;46020;-71
2022/11/06 10:21:36;;;;;;;;;3.33;2.33;;;;;20.44;56.45;100373.75;146619;645;46013;-67
2022/11/06 10:25:15;;;;;;;;;3.67;3.00;;;;;18.20;55.69;99944.56;146624;592;46010;-67
2022/11/06 10:28:45;;;;;;;;;2.67;2.00;;;;;20.84;55.45;100358.13;146615;597;46016;-70
2022/11/06 10:32:15;;;;;;;;;3.33;3.33;;;;;18.59;55.25;99940.47;146623;594;46010;-68
2022/11/06 10:35:33;;;;;;;;;3.00;3.00;;;;;20.94;54.54;100350.25;146617;596;46016;-68
2022/11/06 10:38:41;;;;;;;;;1.67;0.00;;;;;20.80;55.00;100348.44;146624;615;46020;-67
2022/11/06 10:41:58;;;;;;;;;4.00;3.00;;;;;20.65;56.43;100346.63;146618;602;46016;-68
2022/11/06 10:45:18;;;;;;;;;4.67;2.67;;;;;20.49;56.21;100337.75;146621;573;46021;-68
2022/11/06 10:48:57;;;;;;;;;4.50;3.00;;;;;17.81;55.98;99923.25;146619;580;46016;-67
2022/11/06 10:52:37;;;;;;;;;5.67;3.00;;;;;17.82;56.40;99954.75;146624;622;46021;-67
2022/11/06 10:56:12;;;;;;;;;4.00;4.00;;;;;19.87;56.91;100331.25;146621;647;46012;-69
2022/11/06 10:59:24;;;;;;;;;4.67;3.33;;;;;19.88;57.36;100343.53;146621;620;46010;-68
2022/11/06 11:02:59;;;;;;;;;6.00;6.00;;;;;19.20;58.68;100234.28;146620;574;46012;-70
2022/11/06 11:05:51;;;;;;;;;4.67;2.00;;;;;19.88;58.43;100340.03;146621;583;47020;-70
2022/11/06 11:08:55;;;;;;;;;6.00;4.00;;;;;19.84;59.58;100331.22;146619;626;46917;-71
2022/11/06 11:11:58;;;;;;;;;6.33;3.67;;;;;19.79;58.90;100325.94;146620;577;46020;-76
2022/11/06 11:15:19;;;;;;;;;5.50;4.00;;;;;19.75;58.52;100334.69;146620;636;46033;-67
2022/11/06 11:18:37;;;;;;;;;7.50;5.00;;;;;17.37;58.84;99924.53;146619;685;46010;-72
2022/11/06 11:21:33;;;;;;;;;4.67;3.67;;;;;19.73;60.36;100331.16;146616;593;47017;-67
2022/11/06 11:24:25;;;;;;;;;3.33;2.00;;;;;19.71;61.31;100337.25;146623;630;46020;-68
2022/11/06 11:27:28;;;;;;;;;3.00;3.00;;;;;19.66;61.89;100337.25;146619;573;46016;-68
2022/11/06 11:30:38;;;;;;;;;3.00;3.00;;;;;17.15;62.48;99920.78;146623;581;46021;-70
2022/11/06 11:33:37;;;;;;;;;9.67;4.33;;;;;19.60;61.68;100326.62;146619;569;46012;-68
2022/11/06 11:36:57;;;;;;;;;5.67;3.67;;;;;18.77;60.96;100181.34;146623;587;46014;-76
2022/11/06 11:39:53;;;;;;;;;6.33;5.33;;;;;19.68;60.70;100327.59;146621;609;46012;-69
2022/11/06 11:42:54;;;;;;;;;7.67;4.67;;;;;19.74;59.44;100326.78;146623;573;46010;-69
2022/11/06 11:45:50;;;;;;;;;4.33;4.33;;;;;19.74;58.86;100316.25;146619;563;46014;-70
2022/11/06 11:49:12;;;;;;;;;5.33;3.00;;;;;19.76;58.53;100311.87;146624;573;46010;-71
2022/11/06 11:52:16;;;;;;;;;5.33;5.00;;;;;19.78;58.87;100316.28;146618;579;46014;-69
2022/11/06 11:55:17;;;;;;;;;5.67;3.00;;;;;19.83;58.27;100318.94;146622;582;46010;-70
2022/11/06 11:58:39;;;;;;;;;9.33;4.00;;;;;19.90;58.44;100306.72;146618;582;46013;-70
2022/11/06 12:01:50;;;;;;;;;10.00;5.00;;;;;19.99;58.49;100306.78;146623;569;46010;-72
2022/11/06 12:04:59;;;;;;;;;7.33;4.33;;;;;17.70;57.80;99889.03;146619;573;46017;-75
2022/11/06 12:08:24;;;;;;;;;8.00;4.25;;;;;17.68;57.77;99885.53;146622;575;46010;-72
2022/11/06 12:11:43;;;;;;;;;4.75;4.00;;;;;20.15;57.85;100313.88;146616;619;46016;-71
2022/11/06 12:14:41;;;;;;;;;2.33;2.33;;;;;20.12;58.61;100308.59;146623;569;47010;-72
2022/11/06 12:17:39;;;;;;;;;5.00;2.33;;;;;20.08;58.00;100315.59;146621;636;46012;-69
2022/11/06 12:21:23;;;;;;;;;5.67;3.00;;;;;17.61;57.89;99876.72;146625;638;46010;-73
2022/11/06 12:24:28;;;;;;;;;2.67;2.67;;;;;20.06;57.57;100313.81;146619;600;46016;-71
2022/11/06 12:27:51;;;;;;;;;1.00;1.00;;;;;20.04;55.05;100300.66;146622;596;46021;-70
2022/11/06 12:31:19;;;;;;;;;1.67;0.00;;;;;17.61;54.31;99874.09;146621;671;46914;-70
2022/11/06 12:34:41;;;;;;;;;0.00;0.00;;;;;20.13;53.74;100306.88;146623;692;46021;-70
2022/11/06 12:38:15;;;;;;;;;0.00;0.00;;;;;20.12;54.27;100291.94;146620;563;46012;-69
2022/11/06 12:41:42;;;;;;;;;2.67;0.00;;;;;20.08;54.60;100302.44;146623;591;46020;-71
2022/11/06 12:44:39;;;;;;;;;0.00;0.00;;;;;20.04;54.04;100315.59;146617;579;46916;-71
2022/11/06 12:47:57;;;;;;;;;0.00;0.00;;;;;19.98;54.25;100308.53;146625;590;46010;-71
2022/11/06 12:51:47;;;;;;;;;0.33;0.33;;;;;17.54;55.44;99898.50;146619;624;46017;-71
2022/11/06 12:55:15;;;;;;;;;0.00;0.00;;;;;20.05;55.81;100312.06;146623;563;47010;-71
2022/11/06 12:59:04;;;;;;;;;2.33;2.00;;;;;17.75;56.27;99903.06;146619;569;46012;-71
2022/11/06 13:02:41;;;;;;;;;0.00;0.00;;;;;17.80;56.78;99903.16;146622;602;46020;-70
2022/11/06 13:05:55;;;;;;;;;0.00;0.00;;;;;20.13;56.97;100335.81;146619;584;46014;-70
2022/11/06 13:09:57;;;;;;;;;0.00;0.00;;;;;17.51;57.58;99922.94;146620;569;46020;-69
2022/11/06 13:13:30;;;;;;;;;1.33;0.00;;;;;19.69;58.97;100324.13;146619;650;46016;-69
2022/11/06 13:17:11;;;;;;;;;0.00;0.00;;;;;19.49;61.20;100357.22;146623;616;46014;-75
2022/11/06 13:20:56;;;;;;;;;0.00;0.00;;;;;16.78;61.52;99919.44;146621;587;46012;-71
2022/11/06 13:24:26;;;;;;;;;0.00;0.00;;;;;19.13;61.22;100343.75;146621;581;46014;-71
2022/11/06 13:27:48;;;;;;;;;1.00;0.00;;;;;19.09;62.18;100341.03;146620;575;46012;-71
2022/11/06 13:30:54;;;;;;;;;2.00;0.00;;;;;19.04;62.25;100341.00;146623;599;46014;-70
2022/11/06 13:34:07;;;;;;;;;0.33;0.33;;;;;18.98;61.52;100338.31;146619;573;46015;-71
2022/11/06 13:37:17;;;;;;;;;1.00;0.00;;;;;18.99;61.66;100350.56;146623;682;46010;-70
2022/11/06 13:40:45;;;;;;;;;0.00;0.00;;;;;18.95;61.25;100346.16;146620;564;46914;-71
2022/11/06 13:44:14;;;;;;;;;2.33;0.00;;;;;18.92;62.08;100354.00;146620;649;47010;-70
2022/11/06 13:47:35;;;;;;;;;;;;;;;;;;;;;
2022/11/06 13:51:01;;;;;;;;;0.00;0.00;;;;;18.84;62.97;100369.66;146623;657;46023;-70
2022/11/06 13:54:38;;;;;;;;;0.00;0.00;;;;;18.74;63.78;100352.03;146620;590;46012;-71
2022/11/06 13:58:21;;;;;;;;;;;;;;;;;;;;;
2022/11/06 14:02:08;;;;;;;;;0.00;0.00;;;;;18.55;65.88;100358.78;146616;635;46016;-71
2022/11/06 14:05:37;;;;;;;;;2.25;2.25;;;;;18.46;67.72;100364.78;146622;592;46010;-71
2022/11/06 14:08:58;;;;;;;;;4.00;1.00;;;;;18.39;67.58;100367.31;146618;617;46012;-71
2022/11/06 14:12:03;;;;;;;;;3.00;3.00;;;;;18.27;67.39;100383.78;146622;606;46021;-71
2022/11/06 14:15:41;;;;;;;;;0.33;0.33;;;;;15.50;67.48;99910.41;146620;577;46020;-70
2022/11/06 14:18:38;;;;;;;;;2.00;1.00;;;;;18.24;68.28;100378.47;146623;683;46014;-72
2022/11/06 14:21:50;;;;;;;;;1.67;0.00;;;;;18.21;68.37;100384.56;146611;599;47914;-69
2022/11/06 14:24:51;;;;;;;;;1.33;1.00;;;;;18.22;67.21;100385.44;146622;564;46020;-70
2022/11/06 14:28:31;;;;;;;;;1.67;1.00;;;;;15.78;67.82;99971.91;146620;573;46016;-70
2022/11/06 14:32:01;;;;;;;;;1.33;1.33;;;;;18.27;67.94;100390.75;146617;580;46022;-70
2022/11/06 14:34:59;;;;;;;;;2.25;2.00;;;;;18.30;67.97;100386.44;146619;694;46012;-70
2022/11/06 14:38:09;;;;;;;;;1.67;1.67;;;;;18.29;67.59;100395.19;146624;565;46010;-70
2022/11/06 14:41:02;;;;;;;;;3.67;1.67;;;;;18.33;66.79;100393.47;146619;573;46017;-70
2022/11/06 14:44:01;;;;;;;;;2.67;2.33;;;;;18.35;66.73;100394.38;146621;624;46020;-71
2022/11/06 14:47:28;;;;;;;;;2.00;2.00;;;;;18.36;65.28;100398.78;146620;635;46034;-70
2022/11/06 14:51:02;;;;;;;;;2.00;2.00;;;;;15.44;66.18;99898.09;146623;589;46020;-70
2022/11/06 14:54:35;;;;;;;;;1.00;0.33;;;;;15.69;65.48;99960.44;146618;595;46017;-70
2022/11/06 14:57:56;;;;;;;;;2.00;1.00;;;;;18.26;65.16;100399.50;146619;619;46020;-71
2022/11/06 15:01:36;;;;;;;;;4.25;3.00;;;;;15.62;68.90;99970.72;146617;637;46915;-71
2022/11/06 15:05:25;;;;;;;;;0.33;0.00;;;;;15.44;69.65;99987.78;146620;586;46021;-69
2022/11/06 15:08:57;;;;;;;;;1.67;1.00;;;;;15.10;69.84;99965.34;146614;591;46015;-70
2022/11/06 15:11:57;;;;;;;;;5.00;3.00;;;;;17.63;70.24;100419.41;146622;570;46021;-70
2022/11/06 15:15:22;;;;;;;;;4.00;4.00;;;;;14.95;69.92;99972.84;146611;658;49917;-71
2022/11/06 15:19:10;;;;;;;;;15.50;13.00;;;;;15.01;69.72;99992.16;146619;569;46021;-70
2022/11/06 15:22:29;;;;;;;;;3.50;2.00;;;;;17.60;72.52;100433.37;146613;611;46016;-70